createdAt,value
2023-02-17T00:01:20.390Z,86.70
2023-02-17T00:03:48.319Z,86.77
2023-02-17T00:06:17.555Z,86.80
2023-02-17T00:08:45.011Z,86.86
2023-02-17T00:11:12.226Z,86.80
2023-02-17T00:13:39.978Z,86.72
2023-02-17T00:16:12.450Z,86.74
2023-02-17T00:18:39.447Z,86.77
2023-02-17T00:21:20.597Z,86.80
2023-02-17T00:23:48.697Z,86.84
2023-02-17T00:26:17.403Z,86.90
2023-02-17T00:28:45.222Z,86.90
2023-02-17T00:31:17.209Z,86.90
2023-02-17T00:33:44.727Z,86.86
2023-02-17T00:36:14.551Z,86.83
2023-02-17T00:38:41.749Z,86.88
2023-02-17T00:41:08.708Z,86.96
2023-02-17T00:43:35.788Z,86.99
2023-02-17T00:46:04.606Z,86.98
2023-02-17T00:48:32.590Z,87.17
2023-02-17T00:50:59.655Z,87.25
2023-02-17T00:53:26.998Z,87.24
2023-02-17T00:55:53.870Z,87.30
2023-02-17T00:58:20.844Z,87.25
2023-02-17T01:00:47.701Z,87.28
2023-02-17T01:03:14.769Z,87.33
2023-02-17T01:05:47.004Z,87.28
2023-02-17T01:08:15.761Z,87.23
2023-02-17T01:10:44.723Z,87.33
2023-02-17T01:13:13.537Z,87.28
2023-02-17T01:15:42.935Z,87.37
2023-02-17T01:18:12.540Z,87.35
2023-02-17T01:20:40.304Z,87.43
2023-02-17T01:23:08.572Z,87.33
2023-02-17T01:25:44.569Z,87.18
2023-02-17T01:28:17.704Z,87.27
2023-02-17T01:30:44.679Z,87.15
2023-02-17T01:33:13.446Z,87.54
2023-02-17T01:35:40.561Z,87.44
2023-02-17T01:38:07.510Z,87.48
2023-02-17T01:40:34.546Z,87.57
2023-02-17T01:43:01.729Z,87.67
2023-02-17T01:45:33.930Z,87.83
2023-02-17T01:48:15.856Z,88.15
2023-02-17T01:50:57.924Z,88.35
2023-02-17T01:53:45.105Z,88.42
2023-02-17T01:56:14.264Z,88.30
2023-02-17T01:58:45.109Z,88.73
2023-02-17T02:01:12.235Z,88.89
2023-02-17T02:03:40.205Z,88.54
2023-02-17T02:06:11.505Z,88.92
2023-02-17T02:08:48.251Z,88.23
2023-02-17T02:11:15.184Z,88.30
2023-02-17T02:13:42.144Z,88.18
2023-02-17T02:16:37.660Z,88.03
2023-02-17T02:19:31.187Z,88.15
2023-02-17T02:22:22.876Z,88.38
2023-02-17T02:24:58.737Z,88.53
2023-02-17T02:28:05.680Z,88.57
2023-02-17T02:31:08.703Z,89.06
2023-02-17T02:33:57.187Z,88.38
2023-02-17T02:36:45.271Z,89.18
2023-02-17T02:39:21.366Z,89.01
2023-02-17T02:41:59.103Z,88.77
2023-02-17T02:44:26.456Z,89.41
2023-02-17T02:47:01.957Z,89.73
2023-02-17T02:49:30.759Z,89.84
2023-02-17T02:52:06.917Z,89.69
2023-02-17T02:55:00.068Z,89.54
2023-02-17T02:57:40.216Z,89.64
2023-02-17T03:00:25.049Z,89.71
2023-02-17T03:02:59.621Z,89.61
2023-02-17T03:05:34.356Z,89.63
2023-02-17T03:08:08.827Z,89.39
2023-02-17T03:10:36.571Z,89.50
2023-02-17T03:13:03.920Z,88.93
2023-02-17T03:15:35.340Z,89.61
2023-02-17T03:18:03.407Z,89.50
2023-02-17T03:20:40.270Z,89.40
2023-02-17T03:23:08.955Z,89.49
2023-02-17T03:25:35.930Z,89.79
2023-02-17T03:28:04.088Z,89.94
2023-02-17T03:30:31.247Z,89.75
2023-02-17T03:32:58.421Z,89.68
2023-02-17T03:35:25.525Z,89.67
2023-02-17T03:37:52.518Z,89.62
2023-02-17T03:40:19.520Z,89.79
2023-02-17T03:42:46.634Z,89.79
2023-02-17T03:45:13.514Z,89.95
2023-02-17T03:47:40.553Z,89.53
2023-02-17T03:50:08.226Z,89.70
2023-02-17T03:52:35.159Z,89.76
2023-02-17T03:55:02.027Z,89.59
2023-02-17T03:57:29.145Z,89.70
2023-02-17T03:59:55.992Z,89.70
2023-02-17T04:02:23.108Z,89.51
2023-02-17T04:04:50.243Z,89.44
2023-02-17T04:07:17.294Z,89.32
2023-02-17T04:09:44.190Z,89.24
2023-02-17T04:12:11.484Z,89.20
2023-02-17T04:14:38.419Z,89.24
2023-02-17T04:17:05.345Z,89.25
2023-02-17T04:19:32.321Z,89.12
2023-02-17T04:21:59.318Z,89.28
2023-02-17T04:24:26.187Z,89.14
2023-02-17T04:26:53.341Z,89.10
2023-02-17T04:29:20.208Z,88.98
2023-02-17T04:31:47.289Z,88.50
2023-02-17T04:34:14.314Z,88.60
2023-02-17T04:36:43.424Z,88.16
2023-02-17T04:39:11.353Z,88.08
2023-02-17T04:41:38.507Z,87.83
2023-02-17T04:44:05.643Z,87.57
2023-02-17T04:46:32.663Z,86.80
2023-02-17T04:48:59.819Z,86.47
2023-02-17T04:51:26.681Z,86.27
2023-02-17T04:53:53.706Z,85.31
2023-02-17T04:56:20.747Z,85.06
2023-02-17T04:58:47.728Z,84.90
2023-02-17T05:01:14.604Z,85.22
2023-02-17T05:03:42.351Z,85.36
2023-02-17T05:06:09.358Z,85.27
2023-02-17T05:08:36.302Z,84.50
2023-02-17T05:11:03.269Z,84.71
2023-02-17T05:13:30.230Z,84.57
2023-02-17T05:15:57.107Z,84.39
2023-02-17T05:18:24.210Z,84.39
2023-02-17T05:20:52.406Z,84.25
2023-02-17T05:23:19.309Z,83.94
2023-02-17T05:25:46.259Z,84.21
2023-02-17T05:28:13.233Z,82.93
2023-02-17T05:30:40.074Z,83.13
2023-02-17T05:33:07.213Z,82.65
2023-02-17T05:35:35.741Z,82.13
2023-02-17T05:38:02.741Z,82.33
2023-02-17T05:40:29.643Z,81.84
2023-02-17T05:42:56.743Z,81.59
2023-02-17T05:45:23.680Z,79.64
2023-02-17T05:47:50.726Z,80.98
2023-02-17T05:50:17.627Z,79.36
2023-02-17T05:52:44.658Z,78.31
2023-02-17T05:55:11.521Z,79.50
2023-02-17T05:57:38.518Z,77.63
2023-02-17T06:00:06.242Z,78.39
2023-02-17T06:02:38.932Z,78.05
2023-02-17T06:05:06.328Z,78.18
2023-02-17T06:07:33.241Z,77.77
2023-02-17T06:10:00.249Z,77.64
2023-02-17T06:12:27.199Z,77.63
2023-02-17T06:14:54.396Z,75.65
2023-02-17T06:17:21.555Z,77.01
2023-02-17T06:19:48.633Z,77.27
2023-02-17T06:22:17.245Z,74.12
2023-02-17T06:24:45.606Z,75.14
2023-02-17T06:27:12.648Z,75.91
2023-02-17T06:29:39.707Z,72.70
2023-02-17T06:32:07.991Z,71.60
2023-02-17T06:34:34.982Z,73.29
2023-02-17T06:37:01.852Z,73.57
2023-02-17T06:39:28.799Z,74.45
2023-02-17T06:41:55.738Z,73.17
2023-02-17T06:44:22.746Z,72.24
2023-02-17T06:46:50.193Z,71.39
2023-02-17T06:49:17.307Z,72.67
2023-02-17T06:51:44.315Z,72.29
2023-02-17T06:54:11.397Z,71.70
2023-02-17T06:56:38.340Z,70.58
2023-02-17T06:59:05.542Z,70.80
2023-02-17T07:01:32.695Z,70.74
2023-02-17T07:03:59.988Z,70.76
2023-02-17T07:06:27.515Z,70.88
2023-02-17T07:08:54.711Z,71.16
2023-02-17T07:11:21.651Z,70.73
2023-02-17T07:13:48.725Z,70.85
2023-02-17T07:16:16.309Z,71.32
2023-02-17T07:18:43.367Z,70.90
2023-02-17T07:21:10.659Z,71.66
2023-02-17T07:23:39.156Z,70.88
2023-02-17T07:26:11.855Z,71.25
2023-02-17T07:28:40.303Z,71.10
2023-02-17T07:31:13.441Z,71.04
2023-02-17T07:33:41.317Z,71.13
2023-02-17T07:36:10.346Z,71.38
2023-02-17T07:38:38.102Z,71.49
2023-02-17T07:41:11.445Z,71.65
2023-02-17T07:43:38.655Z,72.37
2023-02-17T07:46:10.403Z,72.05
2023-02-17T07:48:37.999Z,71.67
2023-02-17T07:51:14.251Z,72.16
2023-02-17T07:53:41.911Z,70.94
2023-02-17T07:56:11.433Z,70.56
2023-02-17T07:58:40.423Z,70.68
2023-02-17T08:01:11.831Z,71.63
2023-02-17T08:03:39.213Z,71.10
2023-02-17T08:06:19.829Z,71.30
2023-02-17T08:09:06.114Z,71.14
2023-02-17T08:11:52.040Z,71.48
2023-02-17T08:14:21.828Z,71.10
2023-02-17T08:16:48.873Z,70.58
2023-02-17T08:19:15.939Z,71.03
2023-02-17T08:21:43.258Z,70.73
2023-02-17T08:24:10.302Z,70.30
2023-02-17T08:26:37.275Z,70.18
2023-02-17T08:29:05.425Z,70.02
2023-02-17T08:31:35.993Z,69.99
2023-02-17T08:34:06.766Z,70.61
2023-02-17T08:36:34.759Z,70.58
2023-02-17T08:39:02.127Z,69.72
2023-02-17T08:41:32.519Z,70.05
2023-02-17T08:44:02.770Z,70.67
2023-02-17T08:46:30.284Z,70.86
2023-02-17T08:48:57.634Z,70.49
2023-02-17T08:51:26.366Z,70.55
2023-02-17T08:53:56.324Z,70.83
2023-02-17T08:56:24.303Z,70.06
2023-02-17T08:58:51.660Z,70.49
2023-02-17T09:01:19.222Z,70.46
2023-02-17T09:03:48.146Z,70.60
2023-02-17T09:06:15.962Z,70.76
2023-02-17T09:08:43.721Z,71.06
2023-02-17T09:11:11.114Z,71.03
2023-02-17T09:13:38.179Z,71.15
2023-02-17T09:16:05.976Z,71.33
2023-02-17T09:18:33.192Z,71.54
2023-02-17T09:21:05.054Z,71.67
2023-02-17T09:23:32.012Z,70.92
2023-02-17T09:26:05.768Z,71.19
2023-02-17T09:28:34.272Z,70.86
2023-02-17T09:31:22.202Z,70.74
2023-02-17T09:33:50.168Z,69.74
2023-02-17T09:36:26.020Z,69.82
2023-02-17T09:38:53.661Z,69.70
2023-02-17T09:41:38.034Z,69.74
2023-02-17T09:44:18.297Z,69.27
2023-02-17T09:47:01.385Z,69.42
2023-02-17T09:49:45.202Z,69.75
2023-02-17T09:52:27.978Z,69.42
2023-02-17T09:54:55.020Z,69.47
2023-02-17T09:57:27.056Z,69.22
2023-02-17T10:00:14.174Z,68.80
2023-02-17T10:03:07.038Z,68.76
2023-02-17T10:05:40.368Z,69.38
2023-02-17T10:08:21.857Z,69.10
2023-02-17T10:10:55.504Z,69.40
2023-02-17T10:13:27.064Z,68.26
2023-02-17T10:15:58.864Z,68.66
2023-02-17T10:18:39.520Z,69.13
2023-02-17T10:21:42.455Z,68.92
2023-02-17T10:24:10.338Z,68.71
2023-02-17T10:26:49.679Z,69.71
2023-02-17T10:29:50.739Z,69.32
2023-02-17T10:32:26.444Z,69.27
2023-02-17T10:35:16.741Z,70.00
2023-02-17T10:37:48.666Z,69.52
2023-02-17T10:40:22.276Z,68.99
2023-02-17T10:43:00.100Z,68.63
2023-02-17T10:45:42.048Z,68.33
2023-02-17T10:48:38.748Z,68.49
2023-02-17T10:51:06.538Z,68.51
2023-02-17T10:53:36.993Z,68.33
2023-02-17T10:56:14.972Z,68.21
2023-02-17T10:59:06.491Z,68.47
2023-02-17T11:01:33.939Z,68.18
2023-02-17T11:04:03.395Z,67.91
2023-02-17T11:06:31.882Z,67.87
2023-02-17T11:09:04.952Z,67.94
2023-02-17T11:11:35.594Z,67.79
2023-02-17T11:14:45.633Z,67.66
2023-02-17T11:17:23.054Z,66.81
2023-02-17T11:20:05.413Z,67.19
2023-02-17T11:22:41.793Z,66.98
2023-02-17T11:25:22.148Z,66.56
2023-02-17T11:28:00.345Z,66.85
2023-02-17T11:30:29.305Z,66.51
2023-02-17T11:32:56.899Z,66.35
2023-02-17T11:35:28.732Z,66.08
2023-02-17T11:38:15.002Z,66.11
2023-02-17T11:40:51.726Z,66.46
2023-02-17T11:43:19.339Z,66.74
2023-02-17T11:46:19.235Z,66.66
2023-02-17T11:49:20.671Z,66.58
2023-02-17T11:52:09.204Z,66.89
2023-02-17T11:55:00.543Z,67.52
2023-02-17T11:57:51.863Z,67.52
2023-02-17T12:00:23.439Z,66.54
2023-02-17T12:03:05.923Z,67.05
2023-02-17T12:05:48.322Z,67.10
2023-02-17T12:08:40.944Z,67.14
2023-02-17T12:11:10.819Z,67.44
2023-02-17T12:14:11.537Z,67.50
2023-02-17T12:16:55.986Z,67.12
2023-02-17T12:19:37.026Z,67.49
2023-02-17T12:22:22.015Z,67.81
2023-02-17T12:24:55.195Z,67.11
2023-02-17T12:27:50.210Z,67.01
2023-02-17T12:30:47.074Z,67.46
2023-02-17T12:33:23.314Z,67.20
2023-02-17T12:35:57.934Z,66.90
2023-02-17T12:38:32.822Z,66.71
2023-02-17T12:41:16.200Z,66.66
2023-02-17T12:43:58.496Z,65.78
2023-02-17T12:46:39.831Z,66.15
2023-02-17T12:49:32.421Z,66.14
2023-02-17T12:52:11.284Z,65.77
2023-02-17T12:54:50.754Z,64.64
2023-02-17T12:57:27.663Z,64.65
2023-02-17T12:59:55.662Z,64.27
2023-02-17T13:02:25.092Z,63.83
2023-02-17T13:04:58.349Z,64.59
2023-02-17T13:07:41.348Z,64.61
2023-02-17T13:10:28.062Z,64.37
2023-02-17T13:13:28.801Z,64.66
2023-02-17T13:16:11.815Z,64.10
2023-02-17T13:18:41.730Z,64.53
2023-02-17T13:21:32.045Z,64.40
2023-02-17T13:23:59.490Z,63.91
2023-02-17T13:26:28.332Z,63.63
2023-02-17T13:29:33.570Z,64.23
2023-02-17T13:32:03.800Z,64.27
2023-02-17T13:34:38.617Z,64.57
2023-02-17T13:37:32.647Z,64.69
2023-02-17T13:40:16.141Z,64.42
2023-02-17T13:42:45.850Z,64.21
2023-02-17T13:45:30.853Z,64.25
2023-02-17T13:48:01.083Z,64.18
2023-02-17T13:50:32.628Z,64.35
2023-02-17T13:53:00.952Z,64.82
2023-02-17T13:55:28.288Z,64.64
2023-02-17T13:57:59.881Z,64.11
2023-02-17T14:00:33.617Z,64.66
2023-02-17T14:03:27.956Z,64.73
2023-02-17T14:05:58.170Z,65.82
2023-02-17T14:08:38.591Z,64.82
2023-02-17T14:11:12.772Z,64.71
2023-02-17T14:13:42.765Z,64.04
2023-02-17T14:16:27.953Z,63.18
2023-02-17T14:19:11.116Z,63.01
2023-02-17T14:21:43.092Z,62.70
2023-02-17T14:24:37.012Z,63.60
2023-02-17T14:27:08.245Z,63.21
2023-02-17T14:29:53.470Z,63.48
2023-02-17T14:32:28.767Z,64.63
2023-02-17T14:35:12.093Z,64.62
2023-02-17T14:37:40.415Z,64.80
2023-02-17T14:40:16.576Z,65.40
2023-02-17T14:42:44.098Z,65.01
2023-02-17T14:45:10.984Z,65.50
2023-02-17T14:47:38.029Z,64.72
2023-02-17T14:50:05.388Z,64.46
2023-02-17T14:52:32.591Z,64.50
2023-02-17T14:55:00.118Z,65.22
2023-02-17T14:57:28.187Z,64.82
2023-02-17T14:59:57.810Z,64.94
2023-02-17T15:02:24.926Z,65.28
2023-02-17T15:04:51.857Z,65.22
2023-02-17T15:07:19.504Z,65.14
2023-02-17T15:09:48.367Z,65.62
2023-02-17T15:12:22.127Z,65.01
2023-02-17T15:14:49.237Z,65.74
2023-02-17T15:17:16.227Z,65.82
2023-02-17T15:19:44.971Z,65.33
2023-02-17T15:22:15.226Z,65.59
2023-02-17T15:24:42.282Z,65.34
2023-02-17T15:27:14.376Z,65.50
2023-02-17T15:29:41.667Z,65.74
2023-02-17T15:32:21.743Z,65.63
2023-02-17T15:34:48.869Z,65.46
2023-02-17T15:37:15.705Z,66.04
2023-02-17T15:39:42.964Z,65.83
2023-02-17T15:42:13.775Z,65.80
2023-02-17T15:44:48.247Z,65.26
2023-02-17T15:47:18.523Z,65.59
2023-02-17T15:49:46.131Z,65.75
2023-02-17T15:52:14.009Z,66.46
2023-02-17T15:54:42.770Z,66.82
2023-02-17T15:57:22.181Z,66.93
2023-02-17T15:59:50.025Z,67.01
2023-02-17T16:02:22.651Z,67.23
2023-02-17T16:04:49.732Z,67.17
2023-02-17T16:07:16.861Z,67.14
2023-02-17T16:09:43.857Z,66.76
2023-02-17T16:12:27.532Z,67.17
2023-02-17T16:14:55.835Z,67.16
2023-02-17T16:17:22.867Z,67.59
2023-02-17T16:19:49.930Z,67.35
2023-02-17T16:22:16.866Z,67.62
2023-02-17T16:24:43.988Z,67.84
2023-02-17T16:27:15.959Z,68.02
2023-02-17T16:29:43.717Z,68.35
2023-02-17T16:32:12.878Z,68.03
2023-02-17T16:34:40.619Z,68.47
2023-02-17T16:37:15.238Z,68.62
2023-02-17T16:39:43.227Z,68.55
2023-02-17T16:42:12.307Z,68.58
2023-02-17T16:44:39.801Z,68.72
2023-02-17T16:47:17.032Z,69.00
2023-02-17T16:49:47.473Z,69.28
2023-02-17T16:52:25.048Z,69.22
2023-02-17T16:54:54.263Z,69.20
2023-02-17T16:57:21.827Z,68.91
2023-02-17T16:59:48.912Z,69.39
2023-02-17T17:02:15.995Z,69.66
2023-02-17T17:04:43.128Z,69.52
2023-02-17T17:07:13.921Z,69.49
2023-02-17T17:09:41.855Z,69.63
2023-02-17T17:12:11.154Z,69.52
2023-02-17T17:14:38.200Z,69.49
2023-02-17T17:17:05.201Z,69.45
2023-02-17T17:19:32.314Z,69.38
2023-02-17T17:21:59.341Z,69.36
2023-02-17T17:24:26.368Z,69.41
2023-02-17T17:26:53.342Z,69.39
2023-02-17T17:29:20.758Z,69.42
2023-02-17T17:31:48.030Z,69.52
2023-02-17T17:34:15.223Z,69.39
2023-02-17T17:36:44.824Z,69.29
2023-02-17T17:39:23.366Z,69.52
2023-02-17T17:41:51.273Z,69.36
2023-02-17T17:44:19.105Z,69.45
2023-02-17T17:46:46.555Z,69.50
2023-02-17T17:49:15.555Z,69.82
2023-02-17T17:51:43.030Z,69.54
2023-02-17T17:54:10.700Z,69.83
2023-02-17T17:56:42.606Z,69.67
2023-02-17T17:59:11.142Z,69.70
2023-02-17T18:01:38.130Z,69.34
2023-02-17T18:04:07.890Z,69.53
2023-02-17T18:06:42.551Z,69.68
2023-02-17T18:09:25.806Z,69.68
2023-02-17T18:12:01.331Z,69.37
2023-02-17T18:14:29.409Z,69.10
2023-02-17T18:16:57.790Z,69.30
2023-02-17T18:19:24.844Z,69.19
2023-02-17T18:21:51.775Z,69.13
2023-02-17T18:24:18.773Z,69.11
2023-02-17T18:26:45.610Z,69.10
2023-02-17T18:29:12.602Z,69.03
2023-02-17T18:31:39.779Z,69.55
2023-02-17T18:34:07.054Z,69.70
2023-02-17T18:36:33.958Z,69.23
2023-02-17T18:39:01.568Z,69.34
2023-02-17T18:41:30.701Z,70.03
2023-02-17T18:43:59.950Z,70.35
2023-02-17T18:46:27.540Z,70.02
2023-02-17T18:48:56.041Z,70.30
2023-02-17T18:51:24.009Z,70.53
2023-02-17T18:53:51.733Z,70.48
2023-02-17T18:56:22.921Z,70.64
2023-02-17T18:58:51.835Z,70.68
2023-02-17T19:01:24.679Z,70.85
2023-02-17T19:03:52.071Z,70.85
2023-02-17T19:06:22.280Z,70.93
2023-02-17T19:08:50.030Z,70.84
2023-02-17T19:11:18.150Z,70.84
2023-02-17T19:13:45.403Z,71.44
2023-02-17T19:16:16.868Z,71.20
2023-02-17T19:18:46.074Z,70.94
2023-02-17T19:21:13.458Z,70.87
2023-02-17T19:23:40.950Z,70.72
2023-02-17T19:26:09.739Z,70.98
2023-02-17T19:28:38.129Z,70.69
2023-02-17T19:31:10.258Z,70.42
2023-02-17T19:33:37.644Z,70.58
2023-02-17T19:36:14.167Z,70.58
2023-02-17T19:38:41.725Z,70.54
2023-02-17T19:41:10.476Z,70.62
2023-02-17T19:43:37.582Z,71.10
2023-02-17T19:46:05.654Z,71.10
2023-02-17T19:48:33.333Z,70.90
2023-02-17T19:51:02.499Z,71.21
2023-02-17T19:53:31.969Z,71.17
2023-02-17T19:56:14.291Z,70.98
2023-02-17T19:58:43.230Z,71.21
2023-02-17T20:01:12.660Z,71.10
2023-02-17T20:03:40.055Z,71.30
2023-02-17T20:06:09.911Z,71.27
2023-02-17T20:08:37.505Z,71.55
2023-02-17T20:11:09.343Z,71.94
2023-02-17T20:13:45.608Z,71.63
2023-02-17T20:16:15.331Z,71.68
2023-02-17T20:18:44.972Z,71.66
2023-02-17T20:21:15.098Z,72.03
2023-02-17T20:23:42.205Z,71.59
2023-02-17T20:26:13.325Z,71.71
2023-02-17T20:28:40.792Z,71.71
2023-02-17T20:31:08.954Z,71.58
2023-02-17T20:33:36.342Z,72.03
2023-02-17T20:36:05.252Z,72.02
2023-02-17T20:38:33.178Z,72.17
2023-02-17T20:41:00.522Z,71.76
2023-02-17T20:43:27.497Z,71.58
2023-02-17T20:45:55.143Z,71.87
2023-02-17T20:48:27.594Z,71.62
2023-02-17T20:50:56.108Z,71.74
2023-02-17T20:53:23.456Z,71.90
2023-02-17T20:55:51.042Z,71.90
2023-02-17T20:58:18.905Z,71.84
2023-02-17T21:00:47.412Z,71.99
2023-02-17T21:03:14.717Z,72.01
2023-02-17T21:05:41.974Z,72.19
2023-02-17T21:08:09.289Z,72.20
2023-02-17T21:10:36.621Z,72.06
2023-02-17T21:13:03.782Z,72.44
2023-02-17T21:15:30.778Z,72.30
2023-02-17T21:17:57.723Z,72.07
2023-02-17T21:20:24.675Z,72.02
2023-02-17T21:22:51.652Z,72.18
2023-02-17T21:25:18.862Z,72.09
2023-02-17T21:27:45.797Z,72.13
2023-02-17T21:30:13.354Z,72.24
2023-02-17T21:32:41.095Z,72.22
2023-02-17T21:35:11.990Z,72.35
2023-02-17T21:37:40.256Z,71.97
2023-02-17T21:40:08.296Z,72.41
2023-02-17T21:42:55.931Z,72.05
2023-02-17T21:45:23.672Z,72.13
2023-02-17T21:47:51.124Z,72.17
2023-02-17T21:50:19.069Z,72.16
2023-02-17T21:52:45.877Z,72.15
2023-02-17T21:55:12.828Z,72.27
2023-02-17T21:57:39.952Z,72.19
2023-02-17T22:00:08.950Z,72.40
2023-02-17T22:02:39.246Z,72.31
2023-02-17T22:05:07.724Z,72.70
2023-02-17T22:07:34.755Z,72.47
2023-02-17T22:10:02.289Z,72.56
2023-02-17T22:12:29.199Z,72.57
2023-02-17T22:14:56.402Z,72.41
2023-02-17T22:17:23.248Z,72.43
2023-02-17T22:19:50.292Z,72.86
2023-02-17T22:22:17.149Z,72.53
2023-02-17T22:24:44.142Z,72.22
2023-02-17T22:27:11.141Z,72.58
2023-02-17T22:29:38.235Z,72.66
2023-02-17T22:32:05.532Z,72.39
2023-02-17T22:34:32.856Z,72.18
2023-02-17T22:36:59.725Z,72.15
2023-02-17T22:39:26.738Z,72.19
2023-02-17T22:41:53.828Z,72.47
2023-02-17T22:44:20.809Z,72.70
2023-02-17T22:46:47.834Z,72.84
2023-02-17T22:49:14.974Z,72.28
2023-02-17T22:51:42.028Z,72.72
2023-02-17T22:54:09.613Z,72.63
2023-02-17T22:56:37.537Z,72.32
2023-02-17T22:59:05.805Z,72.37
2023-02-17T23:01:34.960Z,72.45
2023-02-17T23:04:02.673Z,72.63
2023-02-17T23:06:35.793Z,72.67
2023-02-17T23:09:05.368Z,72.57
2023-02-17T23:11:50.006Z,72.56
2023-02-17T23:14:22.154Z,72.50
2023-02-17T23:16:49.339Z,72.51
2023-02-17T23:19:19.618Z,72.41
2023-02-17T23:21:49.905Z,72.49
2023-02-17T23:24:18.039Z,72.66
2023-02-17T23:26:45.634Z,72.93
2023-02-17T23:29:12.595Z,72.72
2023-02-17T23:31:39.872Z,72.71
2023-02-17T23:34:07.639Z,73.05
2023-02-17T23:36:34.852Z,72.61
2023-02-17T23:39:02.096Z,72.69
2023-02-17T23:41:29.052Z,72.67
2023-02-17T23:43:56.090Z,72.71
2023-02-17T23:46:23.096Z,72.71
2023-02-17T23:48:50.004Z,72.67
2023-02-17T23:51:19.021Z,72.88
2023-02-17T23:53:46.449Z,72.77
2023-02-17T23:56:13.368Z,72.99
2023-02-17T23:58:40.899Z,72.80
